Time;durP1;ratioP1;P1;durP2;ratioP2;P2;SDS_P1;SDS_P2;PMS_P1;PMS_P2;Temp;Humidity;BMP_temperature;BMP_pressure;BME280_temperature;BME280_humidity;BME280_pressure;Samples;Min_cycle;Max_cycle;Signal;HPM_P1;HPM_P2
2023/08/27 00:00:41;;;;;;;;;;;13.50;99.90;;;;;;7323259;19;9192;-82
2023/08/27 00:03:10;;;;;;;;;;;13.50;99.90;;;;;;7322895;19;9253;-82
2023/08/27 00:05:44;;;;;;;;;;;13.50;99.90;;;;;;7322846;19;9211;-83
2023/08/27 00:08:16;;;;;;;;;;;13.50;99.90;;;;;;7322282;19;9335;-82
2023/08/27 00:10:45;;;;;;;;;;;13.40;99.90;;;;;;7321650;19;10415;-82
2023/08/27 00:13:14;;;;;;;;;;;13.40;99.90;;;;;;7323600;19;9126;-82
2023/08/27 00:15:47;;;;;;;;;;;13.30;99.90;;;;;;7323491;19;10541;-82
2023/08/27 00:18:16;;;;;;;;;;;13.30;99.90;;;;;;7322812;19;9267;-82
2023/08/27 00:20:48;;;;;;;;;;;13.30;99.90;;;;;;7322981;19;9465;-83
2023/08/27 00:23:19;;;;;;;;;;;13.30;99.90;;;;;;7322916;19;9529;-82
2023/08/27 00:25:48;;;;;;;;;;;13.20;99.90;;;;;;7322652;19;9000;-82
2023/08/27 00:28:17;;;;;;;;;;;13.20;99.90;;;;;;7322337;19;8991;-82
2023/08/27 00:30:46;;;;;;;;;;;13.20;99.90;;;;;;7321052;19;9173;-82
2023/08/27 00:33:15;;;;;;;;;;;13.20;99.90;;;;;;7322395;19;9185;-83
2023/08/27 00:35:44;;;;;;;;;;;13.20;99.90;;;;;;7322439;19;9189;-82
2023/08/27 00:38:37;;;;;;;;;;;13.10;99.90;;;;;;7320746;19;9181;-82
2023/08/27 00:41:06;;;;;;;;;;;13.20;99.90;;;;;;7322093;19;9316;-83
2023/08/27 00:43:35;;;;;;;;;;;13.20;99.90;;;;;;7322099;19;9161;-82
2023/08/27 00:46:06;;;;;;;;;;;13.20;99.90;;;;;;7321578;19;10204;-82
2023/08/27 00:48:35;;;;;;;;;;;13.30;99.90;;;;;;7322985;19;9249;-83
2023/08/27 00:51:05;;;;;;;;;;;13.30;99.90;;;;;;7321051;19;9365;-82
2023/08/27 00:53:38;;;;;;;;;;;13.30;99.90;;;;;;7322326;19;9470;-82
2023/08/27 00:56:08;;;;;;;;;;;13.30;99.90;;;;;;7321865;19;9123;-82
2023/08/27 00:58:38;;;;;;;;;;;13.30;99.90;;;;;;7322105;19;9593;-82
2023/08/27 01:01:07;;;;;;;;;;;13.30;99.90;;;;;;7322132;19;9350;-82
2023/08/27 01:03:56;;;;;;;;;;;13.30;99.90;;;;;;7323743;19;9517;-82
2023/08/27 01:06:27;;;;;;;;;;;13.30;99.90;;;;;;7329360;19;9261;-82
2023/08/27 01:09:09;;;;;;;;;;;13.30;99.90;;;;;;7327229;19;9177;-83
2023/08/27 01:12:08;;;;;;;;;;;13.30;99.90;;;;;;7327095;19;9182;-82
2023/08/27 01:14:39;;;;;;;;;;;13.20;99.90;;;;;;7328868;19;9315;-82
2023/08/27 01:17:10;;;;;;;;;;;13.10;99.90;;;;;;7332479;19;9446;-83
2023/08/27 01:19:41;;;;;;;;;;;13.10;99.90;;;;;;7328398;19;11408;-83
2023/08/27 01:22:12;;;;;;;;;;;13.10;99.90;;;;;;7328534;19;9191;-82
2023/08/27 01:24:41;;;;;;;;;;;13.10;99.90;;;;;;7328297;19;9464;-82
2023/08/27 01:27:14;;;;;;;;;;;13.10;99.90;;;;;;7328051;19;9214;-82
2023/08/27 01:29:49;;;;;;;;;;;13.10;99.90;;;;;;7327493;19;9193;-82
2023/08/27 01:32:28;;;;;;;;;;;13.20;99.90;;;;;;7327992;19;9146;-82
2023/08/27 01:34:59;;;;;;;;;;;13.10;99.90;;;;;;7327650;19;9511;-83
2023/08/27 01:37:31;;;;;;;;;;;13.10;99.90;;;;;;7328142;19;8944;-82
2023/08/27 01:40:05;;;;;;;;;;;13.10;99.90;;;;;;7327514;19;9197;-82
2023/08/27 01:42:35;;;;;;;;;;;13.00;99.90;;;;;;7327806;19;9606;-82
2023/08/27 01:45:04;;;;;;;;;;;13.00;99.90;;;;;;7327646;19;9197;-82
2023/08/27 01:47:34;;;;;;;;;;;13.00;99.90;;;;;;7325244;19;9440;-82
2023/08/27 01:50:05;;;;;;;;;;;13.00;99.90;;;;;;7326437;19;9213;-82
2023/08/27 01:52:36;;;;;;;;;;;13.00;99.90;;;;;;7327430;19;9533;-82
2023/08/27 01:55:07;;;;;;;;;;;12.90;99.90;;;;;;7327163;19;9415;-82
2023/08/27 01:57:36;;;;;;;;;;;12.90;99.90;;;;;;7327326;19;9185;-82
2023/08/27 02:00:09;;;;;;;;;;;12.90;99.90;;;;;;7326861;19;9283;-82
2023/08/27 02:02:38;;;;;;;;;;;12.90;99.90;;;;;;7327074;19;9161;-82
2023/08/27 02:05:08;;;;;;;;;;;12.90;99.90;;;;;;7326662;19;9520;-82
2023/08/27 02:07:41;;;;;;;;;;;13.00;99.90;;;;;;7326553;19;9487;-82
2023/08/27 02:10:11;;;;;;;;;;;12.90;99.90;;;;;;7325862;19;9233;-82
2023/08/27 02:12:40;;;;;;;;;;;13.00;99.90;;;;;;7325059;19;10672;-82
2023/08/27 02:15:10;;;;;;;;;;;13.00;99.90;;;;;;7324568;19;9204;-82
2023/08/27 02:17:39;;;;;;;;;;;12.90;99.90;;;;;;7327172;19;9155;-83
2023/08/27 02:20:09;;;;;;;;;;;12.90;99.90;;;;;;7327024;19;9330;-82
2023/08/27 02:22:41;;;;;;;;;;;12.90;99.90;;;;;;7326725;19;9215;-82
2023/08/27 02:25:11;;;;;;;;;;;12.90;99.90;;;;;;7326552;19;9486;-83
2023/08/27 02:27:40;;;;;;;;;;;13.00;99.90;;;;;;7326418;19;9173;-82
2023/08/27 02:30:10;;;;;;;;;;;12.90;99.90;;;;;;7325425;19;8944;-82
2023/08/27 02:32:39;;;;;;;;;;;12.90;99.90;;;;;;7326051;19;9607;-83
2023/08/27 02:35:08;;;;;;;;;;;12.90;99.90;;;;;;7325874;19;9192;-82
2023/08/27 02:37:40;;;;;;;;;;;12.90;99.90;;;;;;7326004;19;10387;-82
2023/08/27 02:40:12;;;;;;;;;;;12.90;99.90;;;;;;7325876;19;9121;-82
2023/08/27 02:42:42;;;;;;;;;;;12.90;99.90;;;;;;7325893;19;9242;-82
2023/08/27 02:45:31;;;;;;;;;;;12.80;99.90;;;;;;7324437;19;9275;-82
2023/08/27 02:48:00;;;;;;;;;;;12.80;99.90;;;;;;7323384;19;9236;-82
2023/08/27 02:50:29;;;;;;;;;;;12.90;99.90;;;;;;7324931;19;9179;-82
2023/08/27 02:53:01;;;;;;;;;;;12.80;99.90;;;;;;7325653;19;9184;-82
2023/08/27 02:55:31;;;;;;;;;;;12.80;99.90;;;;;;7326103;19;9219;-82
2023/08/27 02:58:00;;;;;;;;;;;12.90;99.90;;;;;;7327973;19;9125;-82
2023/08/27 03:00:29;;;;;;;;;;;12.90;99.90;;;;;;7327544;19;8945;-82
2023/08/27 03:02:59;;;;;;;;;;;12.90;99.90;;;;;;7325502;19;9201;-82
2023/08/27 03:05:29;;;;;;;;;;;12.90;99.90;;;;;;7325177;19;9481;-82
2023/08/27 03:08:01;;;;;;;;;;;12.90;99.90;;;;;;7324660;19;8944;-82
2023/08/27 03:10:30;;;;;;;;;;;12.80;99.90;;;;;;7324606;19;9255;-83
2023/08/27 03:12:59;;;;;;;;;;;12.90;99.90;;;;;;7325013;19;9437;-81
2023/08/27 03:15:28;;;;;;;;;;;12.90;99.90;;;;;;7325572;19;9257;-82
2023/08/27 03:17:57;;;;;;;;;;;12.90;99.90;;;;;;7324738;19;9247;-82
2023/08/27 03:20:26;;;;;;;;;;;13.00;99.90;;;;;;7324709;19;9244;-82
2023/08/27 03:22:55;;;;;;;;;;;13.00;99.90;;;;;;7324671;19;9129;-82
2023/08/27 03:25:26;;;;;;;;;;;13.00;99.90;;;;;;7324264;19;9270;-82
2023/08/27 03:27:55;;;;;;;;;;;13.00;99.90;;;;;;7323726;19;9355;-83
2023/08/27 03:30:24;;;;;;;;;;;13.00;99.90;;;;;;7323843;19;9268;-83
2023/08/27 03:32:53;;;;;;;;;;;13.00;99.90;;;;;;7324088;19;9185;-83
2023/08/27 03:35:22;;;;;;;;;;;13.00;99.90;;;;;;7324111;19;10370;-82
2023/08/27 03:37:51;;;;;;;;;;;13.00;99.90;;;;;;7324046;19;9161;-83
2023/08/27 03:40:20;;;;;;;;;;;13.00;99.90;;;;;;7323928;19;9230;-82
2023/08/27 03:42:51;;;;;;;;;;;13.00;99.90;;;;;;7323836;19;9649;-82
2023/08/27 03:45:20;;;;;;;;;;;12.90;99.90;;;;;;7323955;19;8948;-83
2023/08/27 03:47:49;;;;;;;;;;;12.90;99.90;;;;;;7322232;19;9277;-82
2023/08/27 03:50:19;;;;;;;;;;;12.90;99.90;;;;;;7323159;19;8948;-83
2023/08/27 03:52:48;;;;;;;;;;;12.90;99.90;;;;;;7323510;19;9311;-82
2023/08/27 03:55:17;;;;;;;;;;;12.80;99.90;;;;;;7323335;19;9225;-82
2023/08/27 03:57:46;;;;;;;;;;;12.90;99.90;;;;;;7323274;19;10664;-82
2023/08/27 04:00:19;;;;;;;;;;;12.90;99.90;;;;;;7323389;19;9199;-82
2023/08/27 04:02:48;;;;;;;;;;;12.80;99.90;;;;;;7323376;19;9497;-83
2023/08/27 04:05:17;;;;;;;;;;;12.80;99.90;;;;;;7322963;19;9314;-82
2023/08/27 04:07:46;;;;;;;;;;;12.70;99.90;;;;;;7323017;19;8944;-82
2023/08/27 04:10:15;;;;;;;;;;;12.70;99.90;;;;;;7323017;19;9348;-83
2023/08/27 04:12:44;;;;;;;;;;;12.70;99.90;;;;;;7323243;19;9196;-82
2023/08/27 04:15:13;;;;;;;;;;;12.70;99.90;;;;;;7325428;19;9153;-82
2023/08/27 04:17:44;;;;;;;;;;;12.70;99.90;;;;;;7322924;19;9189;-82
2023/08/27 04:20:13;;;;;;;;;;;12.70;99.90;;;;;;7322575;19;11117;-82
2023/08/27 04:22:42;;;;;;;;;;;12.80;99.90;;;;;;7323205;19;9517;-82
2023/08/27 04:25:12;;;;;;;;;;;12.80;99.90;;;;;;7322735;19;9288;-82
2023/08/27 04:27:41;;;;;;;;;;;12.80;99.90;;;;;;7322602;19;9175;-82
2023/08/27 04:30:11;;;;;;;;;;;12.80;99.90;;;;;;7322487;19;9137;-82
2023/08/27 04:32:40;;;;;;;;;;;12.80;99.90;;;;;;7320794;19;9237;-82
2023/08/27 04:35:12;;;;;;;;;;;12.80;99.90;;;;;;7322549;19;9209;-82
2023/08/27 04:37:40;;;;;;;;;;;12.80;99.90;;;;;;7322763;19;9221;-82
2023/08/27 04:40:11;;;;;;;;;;;12.80;99.90;;;;;;7329697;19;9209;-82
2023/08/27 04:42:41;;;;;;;;;;;12.90;99.90;;;;;;7330430;19;9468;-83
2023/08/27 04:45:12;;;;;;;;;;;12.90;99.90;;;;;;7329961;19;9113;-82
2023/08/27 04:47:41;;;;;;;;;;;12.80;99.90;;;;;;7327572;19;9165;-82
2023/08/27 04:50:13;;;;;;;;;;;12.80;99.90;;;;;;7329664;19;9287;-82
2023/08/27 04:52:43;;;;;;;;;;;12.80;99.90;;;;;;7326804;19;11265;-82
2023/08/27 04:55:13;;;;;;;;;;;12.80;99.90;;;;;;7329331;19;9505;-82
2023/08/27 04:57:42;;;;;;;;;;;12.70;99.90;;;;;;7329350;19;9307;-83
2023/08/27 05:00:19;;;;;;;;;;;12.80;99.90;;;;;;7329367;19;9336;-82
2023/08/27 05:02:49;;;;;;;;;;;12.80;99.90;;;;;;7329363;19;9221;-82
2023/08/27 05:05:40;;;;;;;;;;;12.90;99.90;;;;;;7328575;19;10207;-82
2023/08/27 05:08:09;;;;;;;;;;;12.90;99.90;;;;;;7329351;19;9234;-83
2023/08/27 05:10:39;;;;;;;;;;;12.90;99.90;;;;;;7332705;19;9245;-82
2023/08/27 05:13:08;;;;;;;;;;;13.00;99.90;;;;;;7328966;19;9213;-82
2023/08/27 05:15:36;;;;;;;;;;;13.10;99.90;;;;;;7331736;19;9265;-82
2023/08/27 05:18:06;;;;;;;;;;;13.10;99.90;;;;;;7329044;19;9469;-82
2023/08/27 05:20:35;;;;;;;;;;;13.20;99.90;;;;;;7328665;19;9169;-82
2023/08/27 05:23:07;;;;;;;;;;;13.20;99.90;;;;;;7328607;19;9275;-82
2023/08/27 05:25:37;;;;;;;;;;;13.30;99.90;;;;;;7328386;19;9493;-82
2023/08/27 05:28:07;;;;;;;;;;;13.40;99.90;;;;;;7328322;19;9294;-82
2023/08/27 05:30:35;;;;;;;;;;;13.50;99.90;;;;;;7328439;19;10329;-82
2023/08/27 05:33:24;;;;;;;;;;;13.50;99.90;;;;;;7326674;19;9303;-82
2023/08/27 05:35:54;;;;;;;;;;;13.50;99.90;;;;;;7328081;19;10325;-82
2023/08/27 05:38:26;;;;;;;;;;;13.50;99.90;;;;;;7328202;19;9201;-83
2023/08/27 05:40:55;;;;;;;;;;;13.50;99.90;;;;;;7327830;19;9192;-82
2023/08/27 05:43:25;;;;;;;;;;;13.60;99.90;;;;;;7328192;19;9261;-83
2023/08/27 05:45:54;;;;;;;;;;;13.60;99.90;;;;;;7327778;19;10327;-82
2023/08/27 05:48:23;;;;;;;;;;;13.60;99.90;;;;;;7328003;19;9212;-82
2023/08/27 05:50:52;;;;;;;;;;;13.60;99.90;;;;;;7327338;19;9478;-82
2023/08/27 05:53:21;;;;;;;;;;;13.60;99.90;;;;;;7327496;19;9241;-82
2023/08/27 05:55:53;;;;;;;;;;;13.70;99.90;;;;;;7327415;19;9421;-83
2023/08/27 05:58:22;;;;;;;;;;;13.70;99.90;;;;;;7327296;19;10353;-82
2023/08/27 06:00:56;;;;;;;;;;;13.70;99.90;;;;;;7327370;19;9291;-82
2023/08/27 06:03:45;;;;;;;;;;;13.70;99.90;;;;;;7325695;19;9477;-82
2023/08/27 06:06:14;;;;;;;;;;;13.80;99.90;;;;;;7326855;19;10327;-82
2023/08/27 06:08:43;;;;;;;;;;;13.90;99.90;;;;;;7325635;19;9499;-82
2023/08/27 06:11:14;;;;;;;;;;;13.90;99.90;;;;;;7326611;19;9349;-82
2023/08/27 06:13:43;;;;;;;;;;;14.00;99.90;;;;;;7326875;19;9449;-82
2023/08/27 06:16:12;;;;;;;;;;;14.00;99.90;;;;;;7330777;19;9189;-82
2023/08/27 06:18:41;;;;;;;;;;;14.10;99.90;;;;;;7326657;19;9189;-82
2023/08/27 06:21:10;;;;;;;;;;;14.30;99.90;;;;;;7326871;19;9288;-82
2023/08/27 06:23:39;;;;;;;;;;;14.40;99.90;;;;;;7326691;19;9541;-82
2023/08/27 06:26:08;;;;;;;;;;;14.40;99.90;;;;;;7326565;19;9547;-83
2023/08/27 06:28:39;;;;;;;;;;;14.60;99.90;;;;;;7326354;19;9273;-82
2023/08/27 06:31:08;;;;;;;;;;;14.70;99.90;;;;;;7326293;19;9267;-82
2023/08/27 06:33:38;;;;;;;;;;;14.80;99.90;;;;;;7326315;19;9174;-82
2023/08/27 06:36:27;;;;;;;;;;;15.00;99.90;;;;;;7324664;19;9209;-82
2023/08/27 06:38:56;;;;;;;;;;;15.10;99.90;;;;;;7326217;19;9004;-83
2023/08/27 06:41:25;;;;;;;;;;;15.30;99.90;;;;;;7326203;19;9470;-82
2023/08/27 06:43:57;;;;;;;;;;;15.50;99.90;;;;;;7325713;19;9393;-82
2023/08/27 06:46:26;;;;;;;;;;;15.60;99.90;;;;;;7325313;19;9577;-82
2023/08/27 06:48:56;;;;;;;;;;;15.60;99.90;;;;;;7325624;19;9316;-83
2023/08/27 06:51:26;;;;;;;;;;;15.70;99.90;;;;;;7325307;19;9236;-82
2023/08/27 06:53:55;;;;;;;;;;;15.90;99.90;;;;;;7325692;19;10218;-82
2023/08/27 06:56:26;;;;;;;;;;;16.00;99.90;;;;;;7325508;19;9205;-82
2023/08/27 06:58:57;;;;;;;;;;;16.10;99.90;;;;;;7325618;19;9228;-82
2023/08/27 07:01:27;;;;;;;;;;;16.20;99.90;;;;;;7324339;19;9439;-82
2023/08/27 07:03:57;;;;;;;;;;;16.30;99.90;;;;;;7325779;19;9525;-82
2023/08/27 07:06:26;;;;;;;;;;;16.40;99.90;;;;;;7325471;19;10338;-82
2023/08/27 07:08:55;;;;;;;;;;;16.50;99.90;;;;;;7324176;19;9174;-82
2023/08/27 07:11:24;;;;;;;;;;;16.60;99.90;;;;;;7325252;19;9197;-82
2023/08/27 07:13:53;;;;;;;;;;;16.60;99.90;;;;;;7325229;19;9366;-82
2023/08/27 07:16:26;;;;;;;;;;;16.70;99.90;;;;;;7324864;19;9217;-82
2023/08/27 07:18:55;;;;;;;;;;;16.70;99.90;;;;;;7325461;19;9801;-82
2023/08/27 07:21:24;;;;;;;;;;;16.60;99.90;;;;;;7327512;19;9608;-82
2023/08/27 07:23:53;;;;;;;;;;;16.60;99.90;;;;;;7325680;19;9249;-83
2023/08/27 07:26:22;;;;;;;;;;;16.60;99.90;;;;;;7324871;19;9332;-83
2023/08/27 07:28:51;;;;;;;;;;;16.50;99.90;;;;;;7324064;19;9245;-82
2023/08/27 07:31:20;;;;;;;;;;;16.50;99.90;;;;;;7324290;19;9217;-82
2023/08/27 07:34:11;;;;;;;;;;;16.30;99.90;;;;;;7323418;19;9316;-82
2023/08/27 07:36:40;;;;;;;;;;;16.20;99.90;;;;;;7324300;19;9288;-82
2023/08/27 07:39:09;;;;;;;;;;;16.30;99.90;;;;;;7324041;19;10669;-82
2023/08/27 07:41:38;;;;;;;;;;;16.10;99.90;;;;;;7324222;19;9078;-83
2023/08/27 07:44:08;;;;;;;;;;;16.10;99.90;;;;;;7323864;19;9178;-83
2023/08/27 07:46:36;;;;;;;;;;;15.90;99.90;;;;;;7323201;19;9220;-83
2023/08/27 07:49:06;;;;;;;;;;;15.80;99.90;;;;;;7323869;19;9477;-82
2023/08/27 07:51:38;;;;;;;;;;;15.50;99.90;;;;;;7323797;19;10166;-82
2023/08/27 07:54:07;;;;;;;;;;;15.40;99.90;;;;;;7323493;19;9624;-83
2023/08/27 07:56:39;;;;;;;;;;;15.20;99.90;;;;;;7323541;19;9172;-82
2023/08/27 07:59:09;;;;;;;;;;;15.10;99.90;;;;;;7324024;19;9414;-82
2023/08/27 08:01:38;;;;;;;;;;;15.00;99.90;;;;;;7323458;19;9221;-82
2023/08/27 08:04:07;;;;;;;;;;;15.00;99.90;;;;;;7321905;19;9468;-82
2023/08/27 08:06:39;;;;;;;;;;;15.00;99.90;;;;;;7323500;19;9116;-82
2023/08/27 08:09:08;;;;;;;;;;;15.00;99.90;;;;;;7322569;19;9133;-82
2023/08/27 08:11:37;;;;;;;;;;;15.00;99.90;;;;;;7323220;19;9407;-83
2023/08/27 08:14:06;;;;;;;;;;;15.20;99.90;;;;;;7321711;19;9180;-83
2023/08/27 08:16:35;;;;;;;;;;;15.50;99.90;;;;;;7323117;19;9235;-82
2023/08/27 08:19:04;;;;;;;;;;;15.60;99.90;;;;;;7322668;19;9168;-82
2023/08/27 08:21:33;;;;;;;;;;;15.70;99.90;;;;;;7322915;19;9169;-82
2023/08/27 08:24:07;;;;;;;;;;;15.70;99.90;;;;;;7322771;19;9486;-82
2023/08/27 08:26:36;;;;;;;;;;;15.70;99.90;;;;;;7322547;19;9455;-82
2023/08/27 08:29:25;;;;;;;;;;;15.70;99.90;;;;;;7321034;19;9621;-82
2023/08/27 08:31:54;;;;;;;;;;;15.80;99.90;;;;;;7322132;19;9213;-82
2023/08/27 08:34:23;;;;;;;;;;;15.80;99.90;;;;;;7322514;19;9119;-83
2023/08/27 08:36:52;;;;;;;;;;;16.00;99.90;;;;;;7322385;19;9135;-82
2023/08/27 08:39:24;;;;;;;;;;;16.20;99.90;;;;;;7322241;19;9265;-82
2023/08/27 08:42:05;;;;;;;;;;;16.30;99.90;;;;;;7321912;19;9271;-83
2023/08/27 08:44:45;;;;;;;;;;;16.50;99.90;;;;;;7322337;19;9502;-82
2023/08/27 08:47:15;;;;;;;;;;;16.60;99.90;;;;;;7320929;19;10025;-82
2023/08/27 08:49:47;;;;;;;;;;;16.70;99.90;;;;;;7322085;19;9202;-82
2023/08/27 08:52:21;;;;;;;;;;;16.70;99.90;;;;;;7321594;19;9206;-82
2023/08/27 08:54:57;;;;;;;;;;;16.80;99.90;;;;;;7322005;19;10302;-82
2023/08/27 08:57:32;;;;;;;;;;;16.90;99.90;;;;;;7321983;19;9182;-82
2023/08/27 09:00:02;;;;;;;;;;;17.00;99.90;;;;;;7321929;19;9343;-82
2023/08/27 09:02:32;;;;;;;;;;;17.20;99.90;;;;;;7321521;19;9182;-82
2023/08/27 09:05:01;;;;;;;;;;;17.30;99.90;;;;;;7321471;19;9182;-83
2023/08/27 09:07:31;;;;;;;;;;;17.30;99.90;;;;;;7321064;19;9209;-81
2023/08/27 09:10:25;;;;;;;;;;;17.40;99.90;;;;;;7320150;19;9219;-82
2023/08/27 09:12:57;;;;;;;;;;;17.60;99.90;;;;;;7320737;19;9438;-82
2023/08/27 09:15:26;;;;;;;;;;;17.70;99.90;;;;;;7324709;19;9256;-82
2023/08/27 09:17:55;;;;;;;;;;;17.80;99.90;;;;;;7321398;19;9229;-82
2023/08/27 09:20:24;;;;;;;;;;;18.00;99.90;;;;;;7321173;19;9158;-82
2023/08/27 09:22:54;;;;;;;;;;;18.10;99.90;;;;;;7321561;19;9533;-82
2023/08/27 09:25:25;;;;;;;;;;;18.20;99.90;;;;;;7325716;19;9178;-82
2023/08/27 09:27:55;;;;;;;;;;;18.40;99.90;;;;;;7328494;19;9000;-82
2023/08/27 09:30:25;;;;;;;;;;;18.50;99.90;;;;;;7329921;19;9044;-83
2023/08/27 09:32:54;;;;;;;;;;;18.60;99.90;;;;;;7331657;19;9252;-83
2023/08/27 09:35:23;;;;;;;;;;;18.60;99.90;;;;;;7328407;19;9192;-82
2023/08/27 09:37:52;;;;;;;;;;;18.70;99.90;;;;;;7328044;19;9287;-83
2023/08/27 09:40:22;;;;;;;;;;;18.90;99.90;;;;;;7327912;19;9516;-82
2023/08/27 09:43:14;;;;;;;;;;;19.00;99.90;;;;;;7326399;19;9495;-83
2023/08/27 09:45:43;;;;;;;;;;;19.20;99.90;;;;;;7328125;19;9183;-83
2023/08/27 09:48:12;;;;;;;;;;;19.30;99.90;;;;;;7325334;19;9032;-82
2023/08/27 09:50:41;;;;;;;;;;;19.40;99.90;;;;;;7327724;19;9205;-82
2023/08/27 09:53:14;;;;;;;;;;;19.50;99.90;;;;;;7326495;19;9170;-82
2023/08/27 09:55:43;;;;;;;;;;;19.60;99.90;;;;;;7327568;19;9520;-82
2023/08/27 09:58:15;;;;;;;;;;;19.60;99.90;;;;;;7327287;19;9197;-83
2023/08/27 10:00:45;;;;;;;;;;;19.50;99.90;;;;;;7327368;19;9213;-82
2023/08/27 10:03:14;;;;;;;;;;;19.50;99.90;;;;;;7327270;19;9431;-82
2023/08/27 10:05:43;;;;;;;;;;;19.50;99.90;;;;;;7327292;19;9229;-82
2023/08/27 10:08:12;;;;;;;;;;;19.50;99.90;;;;;;7326159;19;10902;-82
2023/08/27 10:10:41;;;;;;;;;;;19.40;99.90;;;;;;7327101;19;9132;-83
2023/08/27 10:13:16;;;;;;;;;;;19.60;99.90;;;;;;7326162;19;9204;-82
2023/08/27 10:15:48;;;;;;;;;;;19.70;99.90;;;;;;7331239;19;9316;-82
2023/08/27 10:18:17;;;;;;;;;;;20.00;99.90;;;;;;7327311;19;10054;-82
2023/08/27 10:20:47;;;;;;;;;;;20.20;99.90;;;;;;7326617;19;9233;-82
2023/08/27 10:23:19;;;;;;;;;;;20.30;99.90;;;;;;7327280;19;9560;-82
2023/08/27 10:25:50;;;;;;;;;;;20.50;99.90;;;;;;7326475;19;9259;-82
2023/08/27 10:28:22;;;;;;;;;;;20.60;99.90;;;;;;7326511;19;9213;-82
2023/08/27 10:30:55;;;;;;;;;;;20.80;99.90;;;;;;7326546;19;9223;-82
2023/08/27 10:33:24;;;;;;;;;;;20.80;99.90;;;;;;7325818;19;9149;-83
2023/08/27 10:35:56;;;;;;;;;;;20.90;99.90;;;;;;7324509;19;9235;-83
2023/08/27 10:38:28;;;;;;;;;;;21.00;99.90;;;;;;7326373;19;9186;-82
2023/08/27 10:40:57;;;;;;;;;;;21.00;99.90;;;;;;7326098;19;9248;-82
2023/08/27 10:43:35;;;;;;;;;;;20.90;99.90;;;;;;7326017;19;9225;-82
2023/08/27 10:46:24;;;;;;;;;;;20.70;99.90;;;;;;7325596;19;9124;-82
2023/08/27 10:48:55;;;;;;;;;;;20.50;99.90;;;;;;7325696;19;9505;-82
2023/08/27 10:51:33;;;;;;;;;;;20.40;99.90;;;;;;7325808;19;9206;-82
2023/08/27 10:54:04;;;;;;;;;;;20.20;99.90;;;;;;7324276;19;9165;-82
2023/08/27 10:56:55;;;;;;;;;;;20.20;99.90;;;;;;7323979;19;9458;-82
2023/08/27 10:59:32;;;;;;;;;;;20.30;99.90;;;;;;7325112;19;9373;-82
2023/08/27 11:02:10;;;;;;;;;;;20.40;99.90;;;;;;7325214;19;9169;-82
2023/08/27 11:04:41;;;;;;;;;;;20.30;99.90;;;;;;7325166;19;9208;-82
2023/08/27 11:07:30;;;;;;;;;;;20.10;99.90;;;;;;7323710;19;9642;-83
2023/08/27 11:10:00;;;;;;;;;;;20.20;99.90;;;;;;7324860;19;9592;-82
2023/08/27 11:12:35;;;;;;;;;;;20.30;99.90;;;;;;7324879;19;9193;-82
2023/08/27 11:15:17;;;;;;;;;;;20.20;99.90;;;;;;7325959;19;9469;-83
2023/08/27 11:17:48;;;;;;;;;;;20.20;99.90;;;;;;7325036;19;9288;-82
2023/08/27 11:20:24;;;;;;;;;;;20.10;99.90;;;;;;7324946;19;9165;-82
2023/08/27 11:22:58;;;;;;;;;;;20.00;99.90;;;;;;7324647;19;9181;-82
2023/08/27 11:25:32;;;;;;;;;;;19.80;99.90;;;;;;7324648;19;9197;-82
2023/08/27 11:28:02;;;;;;;;;;;19.90;99.90;;;;;;7324596;19;9180;-82
2023/08/27 11:30:55;;;;;;;;;;;20.20;99.90;;;;;;7322779;19;9212;-83
2023/08/27 11:33:26;;;;;;;;;;;20.60;99.90;;;;;;7324000;19;9286;-82
2023/08/27 11:35:54;;;;;;;;;;;20.80;99.90;;;;;;7324548;19;9280;-82
2023/08/27 11:38:27;;;;;;;;;;;20.90;99.90;;;;;;7325643;19;9185;-82
2023/08/27 11:41:00;;;;;;;;;;;20.80;99.90;;;;;;7327210;19;9510;-82
2023/08/27 11:43:29;;;;;;;;;;;20.70;99.90;;;;;;7323334;19;9867;-82
2023/08/27 11:46:00;;;;;;;;;;;20.50;99.90;;;;;;7324165;19;9208;-82
2023/08/27 11:48:29;;;;;;;;;;;20.50;99.90;;;;;;7323563;19;9504;-82
2023/08/27 11:50:59;;;;;;;;;;;20.50;99.90;;;;;;7323822;19;8944;-83
2023/08/27 11:53:28;;;;;;;;;;;20.50;99.90;;;;;;7323699;19;9184;-83
2023/08/27 11:55:57;;;;;;;;;;;20.30;99.90;;;;;;7323804;19;9142;-83
2023/08/27 11:58:31;;;;;;;;;;;20.10;99.90;;;;;;7323746;19;9465;-83
2023/08/27 12:01:02;;;;;;;;;;;19.80;99.90;;;;;;7323754;19;9471;-83
2023/08/27 12:03:31;;;;;;;;;;;19.60;99.90;;;;;;7323565;19;9298;-83
2023/08/27 12:06:00;;;;;;;;;;;19.50;99.90;;;;;;7323414;19;9200;-82
2023/08/27 12:08:29;;;;;;;;;;;19.40;99.90;;;;;;7322455;19;9416;-82
2023/08/27 12:10:59;;;;;;;;;;;19.40;99.90;;;;;;7323325;19;9129;-82
2023/08/27 12:13:28;;;;;;;;;;;18.80;99.90;;;;;;7322655;19;11397;-82
2023/08/27 12:16:00;;;;;;;;;;;18.10;99.90;;;;;;7323080;19;10373;-82
2023/08/27 12:18:37;;;;;;;;;;;17.40;99.90;;;;;;7322967;19;9184;-82
2023/08/27 12:21:07;;;;;;;;;;;16.80;99.90;;;;;;7323181;19;9445;-82
2023/08/27 12:23:39;;;;;;;;;;;16.40;99.90;;;;;;7322907;19;9201;-82
2023/08/27 12:26:08;;;;;;;;;;;16.10;99.90;;;;;;7322877;19;11202;-82
2023/08/27 12:28:37;;;;;;;;;;;15.90;99.90;;;;;;7322884;19;9294;-82
2023/08/27 12:31:06;;;;;;;;;;;15.90;99.90;;;;;;7322528;19;11220;-82
2023/08/27 12:33:44;;;;;;;;;;;15.80;99.90;;;;;;7322020;19;9203;-83
2023/08/27 12:36:33;;;;;;;;;;;15.80;99.90;;;;;;7321322;19;9248;-83
2023/08/27 12:39:03;;;;;;;;;;;15.90;99.90;;;;;;7322476;19;9246;-83
2023/08/27 12:41:34;;;;;;;;;;;16.00;99.90;;;;;;7322641;19;10210;-82
2023/08/27 12:44:03;;;;;;;;;;;15.90;99.90;;;;;;7322456;19;9157;-82
2023/08/27 12:46:32;;;;;;;;;;;15.90;99.90;;;;;;7321692;19;9472;-83
2023/08/27 12:49:03;;;;;;;;;;;15.80;99.90;;;;;;7322283;19;9314;-83
2023/08/27 12:51:32;;;;;;;;;;;15.70;99.90;;;;;;7322387;19;9441;-83
2023/08/27 12:54:01;;;;;;;;;;;15.80;99.90;;;;;;7321355;19;10247;-81
2023/08/27 12:56:30;;;;;;;;;;;15.80;99.90;;;;;;7322600;19;9162;-82
2023/08/27 12:59:03;;;;;;;;;;;15.90;99.90;;;;;;7321084;19;9185;-81
2023/08/27 13:01:33;;;;;;;;;;;16.00;99.90;;;;;;7329625;19;8944;-83
2023/08/27 13:04:04;;;;;;;;;;;16.20;99.90;;;;;;7329328;19;9263;-81
2023/08/27 13:06:33;;;;;;;;;;;16.20;99.90;;;;;;7329070;19;9473;-82
2023/08/27 13:09:03;;;;;;;;;;;16.30;99.90;;;;;;7327064;19;9336;-82
2023/08/27 13:11:32;;;;;;;;;;;16.40;99.90;;;;;;7329144;19;9216;-83
2023/08/27 13:14:01;;;;;;;;;;;16.60;99.90;;;;;;7329646;19;9234;-83
2023/08/27 13:16:30;;;;;;;;;;;16.70;99.90;;;;;;7328604;19;9205;-82
2023/08/27 13:18:59;;;;;;;;;;;16.80;99.90;;;;;;7328762;19;9208;-82
2023/08/27 13:21:31;;;;;;;;;;;16.70;99.90;;;;;;7328571;19;9221;-82
2023/08/27 13:24:01;;;;;;;;;;;16.60;99.90;;;;;;7329213;19;9506;-82
2023/08/27 13:26:30;;;;;;;;;;;16.60;99.90;;;;;;7328654;19;10386;-82
2023/08/27 13:28:59;;;;;;;;;;;16.80;99.90;;;;;;7328370;19;10385;-82
2023/08/27 13:31:29;;;;;;;;;;;17.00;99.90;;;;;;7328455;19;9326;-82
2023/08/27 13:33:58;;;;;;;;;;;17.20;99.90;;;;;;7327589;19;10707;-82
2023/08/27 13:36:27;;;;;;;;;;;17.40;99.90;;;;;;7328110;19;9142;-82
2023/08/27 13:38:58;;;;;;;;;;;17.80;99.90;;;;;;7328073;19;9497;-82
2023/08/27 13:41:28;;;;;;;;;;;18.00;99.90;;;;;;7328705;19;9193;-82
2023/08/27 13:43:56;;;;;;;;;;;18.20;99.90;;;;;;7328094;19;9247;-82
2023/08/27 13:46:25;;;;;;;;;;;18.30;99.90;;;;;;7328010;19;9178;-81
2023/08/27 13:48:54;;;;;;;;;;;18.40;99.90;;;;;;7329914;19;9512;-82
2023/08/27 13:51:24;;;;;;;;;;;18.30;99.90;;;;;;7333908;19;9102;-82
2023/08/27 13:53:53;;;;;;;;;;;18.30;99.90;;;;;;7329353;19;10621;-82
2023/08/27 13:56:24;;;;;;;;;;;18.50;99.90;;;;;;7328496;19;9435;-82
2023/08/27 13:58:53;;;;;;;;;;;18.50;99.90;;;;;;7327393;19;9492;-82
2023/08/27 14:01:23;;;;;;;;;;;18.70;99.90;;;;;;7327562;19;9312;-82
2023/08/27 14:03:52;;;;;;;;;;;18.70;99.90;;;;;;7327220;19;9269;-82
2023/08/27 14:06:21;;;;;;;;;;;18.70;99.90;;;;;;7327346;19;9201;-82
2023/08/27 14:08:51;;;;;;;;;;;18.60;99.90;;;;;;7325989;19;9171;-81
2023/08/27 14:11:20;;;;;;;;;;;18.50;99.90;;;;;;7324388;19;9188;-82
2023/08/27 14:13:52;;;;;;;;;;;18.40;99.90;;;;;;7329477;19;9636;-82
2023/08/27 14:16:21;;;;;;;;;;;18.40;99.90;;;;;;7327095;19;9455;-82
2023/08/27 14:18:50;;;;;;;;;;;18.50;99.90;;;;;;7327511;19;9233;-82
2023/08/27 14:21:19;;;;;;;;;;;18.50;99.90;;;;;;7325064;19;9563;-82
2023/08/27 14:23:48;;;;;;;;;;;18.50;99.90;;;;;;7326431;19;9200;-82
2023/08/27 14:26:17;;;;;;;;;;;18.50;99.90;;;;;;7326630;19;9172;-82
2023/08/27 14:29:08;;;;;;;;;;;18.30;99.90;;;;;;7324970;19;9246;-81
2023/08/27 14:31:38;;;;;;;;;;;18.40;99.90;;;;;;7326332;19;9195;-82
2023/08/27 14:34:09;;;;;;;;;;;18.40;99.90;;;;;;7325721;19;9450;-81
2023/08/27 14:36:39;;;;;;;;;;;18.50;99.90;;;;;;7326560;19;9177;-81
2023/08/27 14:39:08;;;;;;;;;;;18.60;99.90;;;;;;7326072;19;9291;-82
2023/08/27 14:41:57;;;;;;;;;;;18.60;99.90;;;;;;7324637;19;9469;-81
2023/08/27 14:44:28;;;;;;;;;;;18.60;99.90;;;;;;7325984;19;9202;-81
2023/08/27 14:46:57;;;;;;;;;;;18.60;99.90;;;;;;7324738;19;9200;-81
2023/08/27 14:49:26;;;;;;;;;;;18.60;99.90;;;;;;7325883;19;9174;-82
2023/08/27 14:51:55;;;;;;;;;;;18.70;99.90;;;;;;7325829;19;9353;-81